Time;durP1;ratioP1;P1;durP2;ratioP2;P2;SDS_P1;SDS_P2;PMS_P1;PMS_P2;Temp;Humidity;BMP_temperature;BMP_pressure;BME280_temperature;BME280_humidity;BME280_pressure;Samples;Min_cycle;Max_cycle;Signal;HPM_P1;HPM_P2
2023/03/04 00:00:56;;;;;;;22.10;19.70;;;;;;;5.32;100.00;92810.88;5068816;28;20229;-87
2023/03/04 00:03:21;;;;;;;28.93;19.17;;;;;;;5.19;100.00;92793.13;5068606;28;20197;-90
2023/03/04 00:05:47;;;;;;;22.40;19.57;;;;;;;5.12;100.00;92797.69;5069315;28;20248;-93
2023/03/04 00:08:12;;;;;;;27.63;20.53;;;;;;;5.40;100.00;92805.28;5069503;28;20181;-91
2023/03/04 00:10:37;;;;;;;22.20;19.43;;;;;;;5.33;100.00;92805.47;5068541;28;20240;-92
2023/03/04 00:13:03;;;;;;;23.33;19.47;;;;;;;5.34;100.00;92804.41;5069104;28;20217;-93
2023/03/04 00:15:28;;;;;;;25.07;19.93;;;;;;;5.29;100.00;92801.81;5068482;28;20255;-91
2023/03/04 00:17:54;;;;;;;22.20;19.67;;;;;;;5.48;100.00;92799.69;5068991;28;20193;-91
2023/03/04 00:20:20;;;;;;;24.30;20.77;;;;;;;5.20;100.00;92779.94;5067757;28;20226;-92
2023/03/04 00:22:45;;;;;;;26.00;20.27;;;;;;;5.35;100.00;92792.28;5069256;28;20198;-92
2023/03/04 00:25:11;;;;;;;22.53;20.10;;;;;;;5.28;100.00;92807.19;5067715;28;20252;-92
2023/03/04 00:27:36;;;;;;;23.50;20.03;;;;;;;5.29;100.00;92798.41;5069280;28;20182;-90
2023/03/04 00:30:02;;;;;;;26.17;19.87;;;;;;;5.28;100.00;92802.00;5068453;28;20193;-93
2023/03/04 00:32:28;;;;;;;23.20;19.27;;;;;;;5.16;100.00;92789.22;5068675;28;20174;-93
2023/03/04 00:34:53;;;;;;;26.50;19.27;;;;;;;5.16;100.00;92778.06;5067877;28;20203;-89
2023/03/04 00:37:18;;;;;;;27.27;20.20;;;;;;;5.18;100.00;92773.44;5069850;28;20200;-92
2023/03/04 00:39:44;;;;;;;24.80;20.47;;;;;;;5.32;100.00;92795.34;5069899;28;20182;-92
2023/03/04 00:42:09;;;;;;;23.90;19.53;;;;;;;4.37;100.00;92643.16;5068114;28;21959;-92
2023/03/04 00:44:35;;;;;;;24.90;20.33;;;;;;;5.30;100.00;92776.69;5068817;28;20229;-90
2023/03/04 00:47:00;;;;;;;26.13;20.77;;;;;;;5.24;100.00;92777.66;5068308;28;20284;-90
2023/03/04 00:49:25;;;;;;;30.43;21.13;;;;;;;5.37;100.00;92793.59;5068530;28;20189;-80
2023/03/04 00:51:51;;;;;;;24.30;19.70;;;;;;;5.35;100.00;92794.88;5069040;28;20229;-81
2023/03/04 00:54:16;;;;;;;22.63;19.60;;;;;;;5.25;100.00;92786.97;5071855;28;20194;-81
2023/03/04 00:56:41;;;;;;;26.63;20.60;;;;;;;5.39;100.00;92793.34;5071531;28;20252;-81
2023/03/04 00:59:07;;;;;;;27.40;20.67;;;;;;;5.37;100.00;92779.88;5071661;28;20198;-81
2023/03/04 01:01:32;;;;;;;29.33;21.43;;;;;;;5.43;100.00;92799.63;5070742;28;20233;-81
2023/03/04 01:03:58;;;;;;;32.00;22.50;;;;;;;5.49;100.00;92796.06;5071495;28;20237;-80
2023/03/04 01:06:23;;;;;;;31.60;21.40;;;;;;;5.47;100.00;92798.88;5071835;28;20221;-81
2023/03/04 01:08:48;;;;;;;31.27;22.90;;;;;;;5.40;100.00;92785.34;5071892;28;20253;-81
2023/03/04 01:11:14;;;;;;;32.53;22.67;;;;;;;5.44;100.00;92777.88;5071537;28;20237;-81
2023/03/04 01:13:39;;;;;;;26.70;21.47;;;;;;;5.33;100.00;92765.84;5071392;28;20192;-81
2023/03/04 01:16:06;;;;;;;26.20;21.17;;;;;;;5.56;100.00;92778.50;5071117;28;20225;-81
2023/03/04 01:18:32;;;;;;;31.97;21.30;;;;;;;5.49;100.00;92783.09;5070668;28;20184;-80
2023/03/04 01:20:58;;;;;;;27.30;22.33;;;;;;;5.24;100.00;92757.75;5070761;28;20224;-80
2023/03/04 01:23:23;;;;;;;31.50;21.40;;;;;;;5.41;100.00;92778.34;5070983;28;20181;-81
2023/03/04 01:25:48;;;;;;;24.87;19.07;;;;;;;5.57;100.00;92782.69;5071071;28;20217;-81
2023/03/04 01:28:14;;;;;;;28.50;21.70;;;;;;;5.24;100.00;92746.59;5070937;28;20219;-81
2023/03/04 01:30:39;;;;;;;30.30;20.67;;;;;;;5.36;100.00;92765.34;5071441;28;20261;-81
2023/03/04 01:33:05;;;;;;;35.50;22.70;;;;;;;5.12;100.00;92738.19;5070196;28;20204;-81
2023/03/04 01:35:30;;;;;;;31.73;21.10;;;;;;;5.32;100.00;92772.84;5071374;28;20278;-82
2023/03/04 01:37:55;;;;;;;30.17;21.63;;;;;;;5.37;100.00;92767.69;5069876;28;20189;-81
2023/03/04 01:40:21;;;;;;;31.40;22.80;;;;;;;5.39;100.00;92764.88;5071240;28;20213;-82
2023/03/04 01:42:46;;;;;;;28.00;21.33;;;;;;;5.20;100.00;92740.34;5071590;28;20190;-81
2023/03/04 01:45:17;;;;;;;24.03;19.87;;;;;;;5.26;100.00;92754.91;5070708;28;20225;-80
2023/03/04 01:47:47;;;;;;;25.03;19.73;;;;;;;5.35;100.00;92758.63;5070932;28;20248;-78
2023/03/04 01:50:21;;;;;;;28.80;19.60;;;;;;;5.24;100.00;92756.94;5070030;28;20304;-81
2023/03/04 01:52:46;;;;;;;28.20;21.93;;;;;;;5.29;100.00;92749.25;5069556;28;20186;-80
2023/03/04 01:55:19;;;;;;;28.23;20.10;;;;;;;5.33;100.00;92756.28;5070565;28;20229;-80
2023/03/04 01:57:47;;;;;;;22.47;17.67;;;;;;;5.33;100.00;92750.31;5070880;28;20271;-81
2023/03/04 02:00:26;;;;;;;22.83;19.07;;;;;;;5.30;100.00;92761.16;5070776;28;20271;-80
2023/03/04 02:02:56;;;;;;;20.67;18.43;;;;;;;5.27;100.00;92751.28;5070246;28;20223;-81
2023/03/04 02:05:22;;;;;;;21.87;19.53;;;;;;;5.26;100.00;92750.50;5069791;28;20221;-81
2023/03/04 02:07:50;;;;;;;21.83;18.40;;;;;;;5.01;100.00;92715.81;5070439;28;20190;-81
2023/03/04 02:10:15;;;;;;;26.27;19.40;;;;;;;5.20;100.00;92737.75;5068816;28;20221;-80
2023/03/04 02:12:41;;;;;;;21.17;18.87;;;;;;;5.12;100.00;92741.53;5071390;28;20253;-81
2023/03/04 02:15:07;;;;;;;22.03;18.27;;;;;;;4.97;100.00;92731.03;5070103;28;20189;-81
2023/03/04 02:17:32;;;;;;;25.10;18.93;;;;;;;5.18;100.00;92739.81;5067878;28;20245;-81
2023/03/04 02:20:27;;;;;;;22.83;20.43;;;;;;;5.13;100.00;92748.28;5068694;28;20181;-81
2023/03/04 02:23:10;;;;;;;22.43;18.90;;;;;;;4.95;100.00;92726.09;5085285;28;20193;-80
2023/03/04 02:25:46;;;;;;;25.37;19.37;;;;;;;5.11;100.00;92747.75;5070146;28;20281;-82
2023/03/04 02:28:12;;;;;;;22.53;18.67;;;;;;;5.14;100.00;92747.25;5070265;28;20185;-81
2023/03/04 02:30:38;;;;;;;25.97;18.93;;;;;;;4.94;100.00;92734.88;5070128;28;20233;-80
2023/03/04 02:33:04;;;;;;;23.17;19.23;;;;;;;5.00;100.00;92745.31;5070083;28;20186;-83
2023/03/04 02:35:29;;;;;;;24.27;19.17;;;;;;;5.07;100.00;92736.34;5068826;28;20237;-81
2023/03/04 02:37:55;;;;;;;23.00;19.33;;;;;;;5.17;100.00;92735.66;5069988;28;20173;-81
2023/03/04 02:40:33;;;;;;;22.43;18.33;;;;;;;4.92;100.00;92718.81;5069818;28;20221;-81
2023/03/04 02:42:59;;;;;;;20.30;18.10;;;;;;;4.83;100.00;92724.66;5069042;28;20181;-80
2023/03/04 02:45:44;;;;;;;22.40;19.60;;;;;;;4.87;100.00;92734.28;5069252;28;20237;-81
2023/03/04 02:48:10;;;;;;;26.30;19.80;;;;;;;4.83;100.00;92725.44;5069494;28;20181;-83
2023/03/04 02:50:49;;;;;;;20.67;18.37;;;;;;;4.73;100.00;92727.88;5069633;28;20249;-78
2023/03/04 02:53:16;;;;;;;23.70;19.53;;;;;;;4.66;100.00;92724.72;5069932;28;20181;-80
2023/03/04 02:55:42;;;;;;;25.13;19.53;;;;;;;4.59;100.00;92729.25;5068373;28;20225;-81
2023/03/04 02:58:08;;;;;;;24.10;19.57;;;;;;;4.50;100.00;92730.69;5069607;28;20241;-80
2023/03/04 03:00:34;;;;;;;22.33;19.57;;;;;;;4.53;100.00;92729.44;5069062;28;20327;-81
2023/03/04 03:02:59;;;;;;;25.33;20.43;;;;;;;4.55;100.00;92717.06;5069622;28;20186;-81
2023/03/04 03:05:27;;;;;;;28.07;19.70;;;;;;;4.71;100.00;92729.97;5068675;28;20293;-81
2023/03/04 03:07:53;;;;;;;27.90;21.97;;;;;;;4.80;100.00;92728.50;5068856;28;20215;-81
2023/03/04 03:10:18;;;;;;;29.43;21.33;;;;;;;4.86;100.00;92735.31;5068681;28;20221;-81
2023/03/04 03:12:44;;;;;;;26.90;20.73;;;;;;;4.78;100.00;92732.34;5069675;28;20240;-81
2023/03/04 03:15:10;;;;;;;25.20;20.53;;;;;;;4.71;100.00;92727.38;5068513;28;20236;-78
2023/03/04 03:17:35;;;;;;;26.60;19.57;;;;;;;4.77;100.00;92726.41;5069476;28;20185;-79
2023/03/04 03:20:00;;;;;;;27.60;19.60;;;;;;;4.66;100.00;92693.69;5068809;28;20208;-80
2023/03/04 03:22:26;;;;;;;25.30;19.60;;;;;;;5.00;100.00;92734.97;5069612;28;20259;-80
2023/03/04 03:24:51;;;;;;;24.50;19.10;;;;;;;4.74;100.00;92726.88;5068596;28;20189;-81
2023/03/04 03:27:17;;;;;;;24.53;17.53;;;;;;;4.50;100.00;92684.19;5069396;28;20702;-81
2023/03/04 03:29:42;;;;;;;19.63;17.03;;;;;;;4.67;100.00;92722.91;5069025;28;20181;-81
2023/03/04 03:32:07;;;;;;;21.53;16.50;;;;;;;4.73;100.00;92722.72;5068703;28;20693;-79
2023/03/04 03:34:33;;;;;;;21.77;17.67;;;;;;;4.67;100.00;92702.22;5068978;28;20215;-80
2023/03/04 03:36:58;;;;;;;22.03;17.50;;;;;;;4.65;100.00;92701.69;5068315;28;20859;-82
2023/03/04 03:39:24;;;;;;;20.53;18.33;;;;;;;4.55;100.00;92712.69;5068831;28;20193;-81
2023/03/04 03:41:49;;;;;;;22.57;18.43;;;;;;;4.44;100.00;92725.69;5068824;28;20243;-80
2023/03/04 03:44:15;;;;;;;22.97;18.83;;;;;;;4.28;100.00;92723.94;5068907;28;20232;-81
2023/03/04 03:46:40;;;;;;;25.30;17.47;;;;;;;4.15;100.00;92717.31;5067791;28;20218;-81
2023/03/04 03:49:05;;;;;;;24.00;17.73;;;;;;;4.01;100.00;92710.91;5069242;28;20245;-81
2023/03/04 03:51:31;;;;;;;21.13;16.20;;;;;;;3.90;100.00;92704.00;5068767;28;20228;-81
2023/03/04 03:53:56;;;;;;;22.60;16.47;;;;;;;3.79;100.00;92711.81;5069011;28;20189;-81
2023/03/04 03:56:21;;;;;;;18.03;15.77;;;;;;;3.73;100.00;92707.59;5068622;28;20228;-81
2023/03/04 03:58:47;;;;;;;17.13;15.33;;;;;;;3.67;100.00;92713.72;5069277;28;20219;-81
2023/03/04 04:01:12;;;;;;;16.30;14.73;;;;;;;3.52;100.00;92700.56;5068448;28;20208;-80
2023/03/04 04:03:38;;;;;;;18.67;15.50;;;;;;;3.38;100.00;92694.13;5068647;28;20838;-81
2023/03/04 04:06:03;;;;;;;16.93;15.17;;;;;;;3.33;100.00;92698.19;5068570;28;20240;-81
2023/03/04 04:08:29;;;;;;;14.27;12.97;;;;;;;3.50;100.00;92700.81;5069575;28;20193;-81
2023/03/04 04:10:54;;;;;;;15.77;14.30;;;;;;;3.18;100.00;92684.25;5068433;28;20225;-81
2023/03/04 04:13:19;;;;;;;14.17;12.97;;;;;;;3.16;100.00;92683.69;5068570;28;20182;-83
2023/03/04 04:15:45;;;;;;;15.07;13.50;;;;;;;3.25;100.00;92695.22;5068605;28;20232;-81
2023/03/04 04:18:10;;;;;;;15.13;13.73;;;;;;;3.05;100.00;92664.69;5068094;28;20197;-81
2023/03/04 04:20:35;;;;;;;15.30;13.70;;;;;;;3.11;100.00;92699.84;5068761;28;21016;-81
2023/03/04 04:23:01;;;;;;;15.70;14.07;;;;;;;3.06;100.00;92688.69;5067912;28;21595;-81
2023/03/04 04:25:27;;;;;;;14.33;13.27;;;;;;;3.16;100.00;92701.72;5068191;28;20221;-81
2023/03/04 04:27:53;;;;;;;14.83;13.40;;;;;;;3.08;100.00;92695.16;5071359;28;20201;-81
2023/03/04 04:30:18;;;;;;;14.63;13.33;;;;;;;3.08;100.00;92695.16;5072471;28;20239;-81
2023/03/04 04:32:44;;;;;;;15.27;13.23;;;;;;;3.07;100.00;92696.19;5071519;28;20196;-82
2023/03/04 04:35:09;;;;;;;13.73;12.70;;;;;;;3.04;100.00;92703.59;5072446;28;20248;-81
2023/03/04 04:37:35;;;;;;;13.80;12.60;;;;;;;3.06;100.00;92702.38;5072728;28;20186;-81
2023/03/04 04:40:01;;;;;;;13.40;12.30;;;;;;;2.91;100.00;92703.88;5072370;28;20197;-81
2023/03/04 04:42:26;;;;;;;14.40;13.20;;;;;;;2.96;100.00;92707.31;5071228;28;20319;-78
2023/03/04 04:44:52;;;;;;;14.53;13.10;;;;;;;3.01;100.00;92686.78;5071731;28;20241;-80
2023/03/04 04:47:17;;;;;;;14.80;13.23;;;;;;;2.96;100.00;92685.91;5071807;28;20894;-80
2023/03/04 04:49:43;;;;;;;14.37;12.80;;;;;;;3.05;100.00;92684.53;5072656;28;20192;-81
2023/03/04 04:52:09;;;;;;;17.50;14.33;;;;;;;3.18;100.00;92703.09;5069440;28;20304;-81
2023/03/04 04:54:34;;;;;;;14.63;13.23;;;;;;;3.03;100.00;92704.63;5072276;28;20201;-81
2023/03/04 04:57:00;;;;;;;17.73;12.83;;;;;;;2.94;100.00;92693.88;5071929;28;20221;-82
2023/03/04 04:59:25;;;;;;;14.00;12.40;;;;;;;2.94;100.00;92695.69;5087434;28;20194;-81
2023/03/04 05:01:51;;;;;;;14.83;13.53;;;;;;;2.98;100.00;92692.41;5071332;28;21338;-81
2023/03/04 05:04:16;;;;;;;14.20;12.77;;;;;;;2.93;100.00;92696.69;5071917;28;20209;-81
2023/03/04 05:06:41;;;;;;;15.33;13.37;;;;;;;3.00;100.00;92710.22;5071763;28;20233;-81
2023/03/04 05:09:07;;;;;;;14.47;13.07;;;;;;;2.92;100.00;92700.28;5072361;28;20193;-82
2023/03/04 05:11:32;;;;;;;13.90;12.60;;;;;;;2.88;100.00;92699.19;5071113;28;20241;-81
2023/03/04 05:13:58;;;;;;;13.47;12.47;;;;;;;3.22;100.00;92726.63;5069442;28;20264;-82
2023/03/04 05:16:23;;;;;;;13.53;12.43;;;;;;;2.96;100.00;92691.06;5070715;28;20225;-91
2023/03/04 05:18:48;;;;;;;13.63;12.60;;;;;;;3.06;100.00;92725.56;5070342;28;20194;-92
2023/03/04 05:21:14;;;;;;;13.20;12.17;;;;;;;3.19;100.00;92727.09;5069898;28;20224;-92
2023/03/04 05:23:42;;;;;;;14.80;13.57;;;;;;;2.90;100.00;92663.63;5072732;28;20182;-89
2023/03/04 05:26:10;;;;;;;15.07;13.67;;;;;;;3.32;100.00;92713.91;5071578;28;20221;-90
2023/03/04 05:28:35;;;;;;;17.20;15.57;;;;;;;3.51;100.00;92733.31;5071655;28;20181;-90
2023/03/04 05:31:01;;;;;;;15.43;13.97;;;;;;;3.47;100.00;92718.53;5072484;28;20249;-91
2023/03/04 05:33:27;;;;;;;16.20;14.77;;;;;;;3.91;100.00;92736.56;5072829;28;20224;-90
2023/03/04 05:35:53;;;;;;;16.27;14.77;;;;;;;3.94;100.00;92735.31;5072636;28;20231;-85
2023/03/04 05:38:20;;;;;;;19.13;16.17;;;;;;;4.04;100.00;92731.09;5077728;28;20277;-91
2023/03/04 05:40:45;;;;;;;17.50;15.77;;;;;;;3.99;100.00;92741.34;5077071;28;20284;-88
2023/03/04 05:43:12;;;;;;;16.77;13.90;;;;;;;4.16;100.00;92739.53;5110172;28;20189;-85
2023/03/04 05:45:38;;;;;;;16.50;15.00;;;;;;;4.18;100.00;92736.72;5076668;28;20262;-84
2023/03/04 05:48:04;;;;;;;16.43;14.77;;;;;;;3.98;100.00;92690.72;5077648;28;20181;-87
2023/03/04 05:50:30;;;;;;;14.67;13.40;;;;;;;4.21;100.00;92743.97;5074868;28;20285;-88
2023/03/04 05:52:56;;;;;;;15.80;13.97;;;;;;;4.35;100.00;92740.06;5069704;28;21051;-86
2023/03/04 05:55:21;;;;;;;15.47;14.00;;;;;;;4.40;100.00;92732.38;5070465;28;20256;-93
2023/03/04 05:57:47;;;;;;;14.33;13.03;;;;;;;4.64;100.00;92752.59;5070372;28;20205;-93
2023/03/04 06:00:15;;;;;;;14.77;13.10;;;;;;;4.81;100.00;92753.34;5069859;28;20229;-92
2023/03/04 06:02:41;;;;;;;13.03;11.83;;;;;;;4.82;100.00;92752.31;5070401;28;20194;-91
2023/03/04 06:05:08;;;;;;;14.10;12.87;;;;;;;4.71;100.00;92748.06;5070248;28;20201;-90
2023/03/04 06:07:33;;;;;;;15.40;13.87;;;;;;;4.80;100.00;92751.00;5071182;28;20189;-92
2023/03/04 06:09:59;;;;;;;15.20;13.77;;;;;;;4.97;100.00;92749.94;5068904;28;20220;-91
2023/03/04 06:12:24;;;;;;;15.70;14.27;;;;;;;5.21;100.00;92757.44;5068806;28;20193;-75
2023/03/04 06:14:50;;;;;;;15.60;14.10;;;;;;;5.12;100.00;92764.81;5069425;28;20207;-75
2023/03/04 06:17:15;;;;;;;15.37;13.97;;;;;;;4.97;100.00;92762.06;5066168;28;20193;-83
2023/03/04 06:19:41;;;;;;;15.30;14.00;;;;;;;5.14;100.00;92749.09;5068545;28;20205;-84
2023/03/04 06:22:10;;;;;;;13.50;12.10;;;;;;;5.29;100.00;92764.78;5069129;28;20878;-80
2023/03/04 06:24:35;;;;;;;15.67;14.20;;;;;;;5.32;100.00;92765.09;5067456;28;20288;-70
2023/03/04 06:27:01;;;;;;;17.53;14.50;;;;;;;5.49;100.00;92770.16;5067398;28;20221;-72
2023/03/04 06:29:27;;;;;;;15.43;14.10;;;;;;;5.38;100.00;92766.69;5069488;28;20186;-72
2023/03/04 06:31:52;;;;;;;15.13;13.93;;;;;;;5.58;100.00;92769.50;5068377;28;20293;-69
2023/03/04 06:34:18;;;;;;;15.27;13.93;;;;;;;5.65;100.00;92746.75;5069270;28;20250;-73
2023/03/04 06:36:43;;;;;;;16.30;14.37;;;;;;;5.70;100.00;92756.38;5069051;28;20668;-71
2023/03/04 06:39:09;;;;;;;15.80;14.33;;;;;;;5.82;100.00;92777.78;5070047;28;20209;-75
2023/03/04 06:41:35;;;;;;;17.03;14.33;;;;;;;5.88;100.00;92774.22;5067353;28;20229;-81
2023/03/04 06:44:00;;;;;;;17.17;15.47;;;;;;;5.90;100.00;92765.16;5069336;28;20225;-79
2023/03/04 06:46:26;;;;;;;17.00;15.40;;;;;;;5.95;100.00;92774.78;5068815;28;20232;-78
2023/03/04 06:48:51;;;;;;;16.97;15.37;;;;;;;5.82;100.00;92788.16;5069485;28;20184;-75
2023/03/04 06:51:17;;;;;;;16.23;14.63;;;;;;;5.88;100.00;92789.75;5069429;28;20221;-78
2023/03/04 06:53:42;;;;;;;20.80;17.17;;;;;;;5.88;100.00;92789.75;5069738;28;20280;-80
2023/03/04 06:56:10;;;;;;;18.17;16.40;;;;;;;5.80;100.00;92793.53;5068425;28;20247;-77
2023/03/04 06:58:36;;;;;;;17.47;15.73;;;;;;;5.77;100.00;92793.25;5069810;28;20216;-78
2023/03/04 07:01:19;;;;;;;18.37;16.37;;;;;;;5.68;100.00;92789.53;5069005;28;20233;-71
2023/03/04 07:03:46;;;;;;;19.53;17.53;;;;;;;5.62;100.00;92795.69;5069524;28;20189;-79
2023/03/04 07:06:14;;;;;;;20.40;18.07;;;;;;;5.62;100.00;92791.28;5069026;28;20229;-76
2023/03/04 07:08:40;;;;;;;24.33;18.53;;;;;;;5.65;100.00;92795.97;5069417;28;20186;-74
2023/03/04 07:11:06;;;;;;;21.00;18.70;;;;;;;5.61;100.00;92794.91;5069242;28;20281;-76
2023/03/04 07:13:34;;;;;;;19.57;17.47;;;;;;;5.66;100.00;92778.63;5069527;28;20216;-75
2023/03/04 07:15:59;;;;;;;20.83;18.00;;;;;;;5.61;100.00;92799.28;5069071;28;20233;-75
2023/03/04 07:18:25;;;;;;;22.67;17.03;;;;;;;5.28;100.00;92779.50;5069170;28;20248;-74
2023/03/04 07:20:51;;;;;;;22.90;18.17;;;;;;;5.45;100.00;92800.16;5063754;28;20225;-74
2023/03/04 07:23:18;;;;;;;23.10;18.53;;;;;;;5.50;100.00;92797.59;5066476;28;20207;-74
2023/03/04 07:25:43;;;;;;;21.37;18.60;;;;;;;5.54;100.00;92801.28;5067483;28;20229;-74
2023/03/04 07:28:08;;;;;;;21.93;17.80;;;;;;;5.61;100.00;92799.28;5067553;28;21363;-74
2023/03/04 07:30:34;;;;;;;24.97;19.13;;;;;;;5.42;100.00;92795.44;5066940;28;20229;-75
2023/03/04 07:32:59;;;;;;;31.10;18.40;;;;;;;5.59;100.00;92791.75;5065880;28;20182;-74
2023/03/04 07:35:24;;;;;;;23.90;18.60;;;;;;;5.50;100.00;92805.38;5059789;28;20247;-78
2023/03/04 07:37:50;;;;;;;25.27;17.30;;;;;;;5.53;100.00;92803.09;5067053;28;20196;-76
2023/03/04 07:40:15;;;;;;;25.40;19.17;;;;;;;5.63;100.00;92802.41;5066683;28;20260;-74
2023/03/04 07:42:41;;;;;;;20.97;17.90;;;;;;;5.53;100.00;92791.94;5066000;28;20189;-79
2023/03/04 07:45:07;;;;;;;24.40;19.73;;;;;;;5.79;100.00;92796.38;5067333;28;20292;-73
2023/03/04 07:47:32;;;;;;;26.87;18.80;;;;;;;5.97;100.00;92785.69;5099275;28;20224;-76
2023/03/04 07:49:58;;;;;;;25.53;18.47;;;;;;;5.90;100.00;92801.41;5067880;28;20193;-76
2023/03/04 07:52:23;;;;;;;22.30;18.43;;;;;;;5.95;100.00;92790.31;5068095;28;20233;-74
2023/03/04 07:54:49;;;;;;;23.37;19.20;;;;;;;5.85;100.00;92785.06;5066714;28;20202;-70
2023/03/04 07:57:14;;;;;;;18.83;16.83;;;;;;;6.05;100.00;92801.59;5067293;28;20186;-72
2023/03/04 07:59:40;;;;;;;20.87;17.70;;;;;;;6.10;100.00;92799.00;5067571;28;20204;-72
2023/03/04 08:02:05;;;;;;;22.10;18.77;;;;;;;6.14;100.00;92800.09;5070502;28;20233;-75
2023/03/04 08:04:31;;;;;;;19.63;17.37;;;;;;;6.12;100.00;92801.34;5072016;28;20220;-69
2023/03/04 08:06:56;;;;;;;21.63;18.63;;;;;;;5.80;100.00;92788.34;5071180;28;20241;-69
2023/03/04 08:09:22;;;;;;;21.87;18.53;;;;;;;6.04;100.00;92794.81;5069394;28;20251;-69
2023/03/04 08:11:47;;;;;;;21.87;19.30;;;;;;;5.90;100.00;92798.06;5070923;28;20232;-69
2023/03/04 08:14:13;;;;;;;22.50;18.87;;;;;;;5.85;100.00;92792.84;5068769;28;20241;-72
2023/03/04 08:16:39;;;;;;;25.17;18.90;;;;;;;6.03;100.00;92798.44;5067611;28;20979;-75
2023/03/04 08:19:05;;;;;;;23.87;18.63;;;;;;;6.09;100.00;92791.47;5068060;28;20206;-71
2023/03/04 08:21:31;;;;;;;26.10;19.30;;;;;;;6.06;100.00;92789.38;5069735;28;20220;-70
2023/03/04 08:24:01;;;;;;;20.70;18.17;;;;;;;5.68;100.00;92790.28;5071682;28;20204;-80
2023/03/04 08:26:33;;;;;;;21.47;18.10;;;;;;;5.83;100.00;92792.28;5069238;28;20240;-74
2023/03/04 08:29:01;;;;;;;25.17;19.90;;;;;;;5.99;100.00;92791.41;5067392;28;20197;-71
2023/03/04 08:31:26;;;;;;;28.57;20.33;;;;;;;5.78;100.00;92777.44;5070107;28;20213;-70
2023/03/04 08:33:52;;;;;;;25.13;19.87;;;;;;;5.79;100.00;92780.84;5071275;28;20265;-78
2023/03/04 08:36:17;;;;;;;26.30;21.67;;;;;;;5.90;100.00;92772.91;5069768;28;20213;-90
2023/03/04 08:38:43;;;;;;;24.17;19.53;;;;;;;6.47;99.50;92789.44;5068138;28;20277;-71
2023/03/04 08:41:08;;;;;;;23.77;20.07;;;;;;;6.67;96.97;92790.63;5065600;28;20221;-71
2023/03/04 08:43:34;;;;;;;21.83;19.40;;;;;;;6.82;97.76;92786.31;5068638;28;20193;-71
2023/03/04 08:46:00;;;;;;;23.60;18.27;;;;;;;7.00;96.96;92788.50;5066162;28;20233;-71
2023/03/04 08:48:26;;;;;;;22.50;18.63;;;;;;;7.39;94.23;92787.09;5070013;28;20181;-73
2023/03/04 08:50:51;;;;;;;19.80;17.80;;;;;;;7.59;91.34;92792.38;5067331;28;20255;-76
2023/03/04 08:53:18;;;;;;;22.30;16.70;;;;;;;7.41;91.86;92771.28;5070604;28;20242;-73
2023/03/04 08:55:44;;;;;;;22.20;18.83;;;;;;;7.26;90.87;92784.97;5070178;28;20236;-73
2023/03/04 08:58:11;;;;;;;22.27;19.10;;;;;;;7.36;90.39;92787.59;5066528;28;20378;-73
2023/03/04 09:00:39;;;;;;;22.03;18.30;;;;;;;7.38;91.92;92782.16;5064661;28;21046;-72
2023/03/04 09:03:05;;;;;;;23.93;18.97;;;;;;;7.57;88.97;92788.44;5065504;28;20193;-73
2023/03/04 09:05:31;;;;;;;24.20;19.10;;;;;;;7.62;87.88;92786.66;5065773;28;20343;-72
2023/03/04 09:07:57;;;;;;;24.83;20.17;;;;;;;7.50;89.32;92783.50;5069125;28;20234;-74
2023/03/04 09:10:22;;;;;;;25.13;19.23;;;;;;;7.51;91.44;92784.28;5069618;28;20221;-68
2023/03/04 09:12:48;;;;;;;21.87;18.70;;;;;;;7.51;91.32;92774.69;5070034;28;20248;-68
2023/03/04 09:15:13;;;;;;;26.07;20.23;;;;;;;7.56;90.95;92777.31;5069980;28;20247;-68
2023/03/04 09:17:39;;;;;;;23.70;19.00;;;;;;;7.75;91.50;92783.56;5071019;28;20219;-67
2023/03/04 09:20:08;;;;;;;23.47;18.80;;;;;;;7.91;89.76;92777.38;5098751;28;20203;-79
2023/03/04 09:22:34;;;;;;;20.53;18.23;;;;;;;7.83;89.58;92732.91;5068439;28;20174;-73
2023/03/04 09:24:59;;;;;;;23.93;19.47;;;;;;;7.95;86.46;92769.84;5067842;28;20217;-73
2023/03/04 09:27:25;;;;;;;25.13;18.80;;;;;;;8.42;87.25;92773.00;5071409;28;20186;-80
2023/03/04 09:29:50;;;;;;;23.37;19.90;;;;;;;8.34;85.61;92746.75;5071759;28;20292;-90
2023/03/04 09:32:16;;;;;;;23.77;19.43;;;;;;;8.08;86.43;92761.50;5069979;28;20181;-90
2023/03/04 09:34:42;;;;;;;22.60;19.07;;;;;;;7.95;87.75;92760.19;5070446;28;20205;-89
2023/03/04 09:37:07;;;;;;;24.03;19.10;;;;;;;7.50;88.78;92741.94;5070754;28;20300;-89
2023/03/04 09:39:33;;;;;;;21.67;19.03;;;;;;;7.36;87.32;92735.66;5071874;28;20194;-89
2023/03/04 09:41:59;;;;;;;21.90;19.20;;;;;;;8.79;84.71;92759.69;5068655;28;20317;-90
2023/03/04 09:44:27;;;;;;;26.83;21.07;;;;;;;9.25;82.35;92763.72;5068410;28;20276;-88
2023/03/04 09:46:57;;;;;;;22.67;18.67;;;;;;;9.47;80.75;92766.75;5069349;28;20252;-89
2023/03/04 09:49:24;;;;;;;23.03;18.77;;;;;;;9.82;80.33;92769.97;5068357;28;20174;-88
2023/03/04 09:52:02;;;;;;;20.30;18.20;;;;;;;9.51;82.17;92758.13;5069041;28;20205;-89
2023/03/04 09:54:30;;;;;;;20.07;18.07;;;;;;;8.43;81.18;92760.78;5068493;28;20208;-89
2023/03/04 09:57:09;;;;;;;20.73;18.53;;;;;;;8.35;83.45;92750.88;5069557;28;20225;-89
2023/03/04 09:59:44;;;;;;;19.37;17.37;;;;;;;7.93;84.72;92731.09;5069814;28;20219;-89
2023/03/04 10:02:27;;;;;;;25.30;19.23;;;;;;;8.56;82.23;92740.19;5069047;28;20252;-90
2023/03/04 10:04:58;;;;;;;25.60;19.63;;;;;;;8.32;84.71;92728.00;5068737;28;20217;-86
2023/03/04 10:07:28;;;;;;;22.77;17.30;;;;;;;8.04;87.39;92743.06;5070123;28;20200;-90
2023/03/04 10:10:18;;;;;;;22.17;19.10;;;;;;;8.20;86.41;92741.25;5070632;28;20197;-89
2023/03/04 10:12:47;;;;;;;21.67;19.33;;;;;;;7.83;87.62;92702.50;5071149;28;20201;-87
2023/03/04 10:15:27;;;;;;;20.30;17.97;;;;;;;8.17;86.12;92746.97;5068676;28;20229;-88
2023/03/04 10:18:12;;;;;;;23.53;19.17;;;;;;;7.86;88.29;92733.16;5070358;28;20265;-89
2023/03/04 10:20:49;;;;;;;21.73;19.37;;;;;;;8.10;85.80;92736.03;5102277;28;20229;-90
2023/03/04 10:23:18;;;;;;;26.00;20.33;;;;;;;7.76;88.87;92714.97;5069908;28;20185;-86
2023/03/04 10:25:52;;;;;;;25.17;19.10;;;;;;;7.94;88.13;92737.84;5068633;28;20237;-90
2023/03/04 10:28:25;;;;;;;23.73;19.53;;;;;;;8.26;85.51;92731.66;5070600;28;20190;-89
2023/03/04 10:30:56;;;;;;;26.53;20.60;;;;;;;8.02;86.77;92713.16;5069966;28;20240;-88
2023/03/04 10:33:27;;;;;;;23.60;19.70;;;;;;;8.48;84.74;92713.94;5070434;28;20193;-90
2023/03/04 10:36:20;;;;;;;21.53;18.33;;;;;;;8.86;82.49;92721.94;5069966;28;20281;-90
2023/03/04 10:38:46;;;;;;;24.03;19.57;;;;;;;8.82;83.55;92704.50;5070484;28;20192;-90
2023/03/04 10:41:16;;;;;;;23.93;19.97;;;;;;;8.82;83.97;92701.91;5070168;28;20220;-88
2023/03/04 10:43:48;;;;;;;31.17;19.27;;;;;;;8.67;83.72;92668.88;5070061;28;20247;-89
2023/03/04 10:46:14;;;;;;;25.37;19.60;;;;;;;9.97;79.27;92697.91;5069522;28;20217;-89
2023/03/04 10:48:43;;;;;;;24.40;19.03;;;;;;;10.15;76.16;92685.00;5069642;28;20174;-89
2023/03/04 10:51:22;;;;;;;26.57;20.37;;;;;;;9.94;78.10;92688.81;5068610;28;20221;-89
2023/03/04 10:54:02;;;;;;;21.83;19.30;;;;;;;9.57;78.12;92698.97;5069749;28;20193;-89
2023/03/04 10:56:38;;;;;;;30.80;19.77;;;;;;;10.01;76.36;92691.88;5069157;28;20225;-88
2023/03/04 10:59:32;;;;;;;24.47;20.30;;;;;;;9.88;75.81;92697.72;5068352;28;20200;-87
2023/03/04 11:01:58;;;;;;;25.53;19.93;;;;;;;9.32;79.76;92686.06;5068798;28;20221;-89
2023/03/04 11:04:25;;;;;;;26.23;20.67;;;;;;;9.48;78.17;92664.88;5071060;28;20230;-89
2023/03/04 11:06:51;;;;;;;20.53;18.33;;;;;;;9.76;77.05;92671.19;5069616;28;20225;-84
2023/03/04 11:09:29;;;;;;;27.83;20.40;;;;;;;8.73;81.92;92664.44;5068226;28;20169;-88
2023/03/04 11:11:58;;;;;;;25.57;20.90;;;;;;;8.11;85.67;92644.78;5069673;28;20213;-88
2023/03/04 11:14:28;;;;;;;25.97;21.33;;;;;;;8.14;89.23;92641.66;5069954;28;20207;-89
2023/03/04 11:16:59;;;;;;;29.63;19.07;;;;;;;7.62;87.24;92655.97;5068960;28;20217;-90
2023/03/04 11:19:38;;;;;;;29.40;19.80;;;;;;;8.08;85.24;92650.50;5102796;28;20203;-89